Time;durP1;ratioP1;P1;durP2;ratioP2;P2;SDS_P1;SDS_P2;PMS_P1;PMS_P2;Temp;Humidity;BMP_temperature;BMP_pressure;BME280_temperature;BME280_humidity;BME280_pressure;Samples;Min_cycle;Max_cycle;Signal;HPM_P1;HPM_P2
2022/11/18 00:01:23;;;;;;;9.15;4.03;;;;;;;12.00;100.00;99328.16;4986048;28;20383;-58
2022/11/18 00:03:50;;;;;;;6.70;3.57;;;;;;;12.30;100.00;99330.53;4988099;28;20042;-57
2022/11/18 00:06:18;;;;;;;8.67;4.63;;;;;;;12.48;100.00;99334.84;4988752;28;20058;-58
2022/11/18 00:08:44;;;;;;;8.97;3.57;;;;;;;12.47;100.00;99343.94;4989397;28;20296;-59
2022/11/18 00:14:17;;;;;;;13.93;4.78;;;;;;;12.22;100.00;99348.88;4989279;28;20347;-58
2022/11/18 00:16:42;;;;;;;11.17;4.43;;;;;;;12.17;100.00;99354.97;4988288;28;19922;-57
2022/11/18 00:19:07;;;;;;;12.65;3.90;;;;;;;12.01;100.00;99356.59;4988802;28;20298;-57
2022/11/18 00:21:33;;;;;;;9.07;4.40;;;;;;;12.00;100.00;99362.97;4986375;28;20065;-58
2022/11/18 00:23:58;;;;;;;15.23;4.97;;;;;;;12.04;100.00;99372.19;4986918;28;20035;-57
2022/11/18 00:26:24;;;;;;;15.10;3.80;;;;;;;12.14;100.00;99372.34;4990940;28;20091;-58
2022/11/18 00:28:49;;;;;;;21.75;4.78;;;;;;;12.21;100.00;99379.41;4988736;28;20042;-56
2022/11/18 00:31:15;;;;;;;10.47;4.13;;;;;;;12.01;100.00;99378.03;4986656;28;20054;-55
2022/11/18 00:33:40;;;;;;;12.77;4.00;;;;;;;11.93;100.00;99375.69;4991331;28;20372;-58
2022/11/18 00:36:09;;;;;;;12.30;4.33;;;;;;;12.02;100.00;99374.28;4987181;28;20031;-57
2022/11/18 00:38:35;;;;;;;10.07;3.97;;;;;;;11.96;100.00;99375.19;4991220;28;20272;-57
2022/11/18 00:41:03;;;;;;;10.47;4.20;;;;;;;11.84;100.00;99381.44;4989779;28;20034;-58
2022/11/18 00:43:29;;;;;;;10.88;4.03;;;;;;;12.04;100.00;99382.91;4992383;28;20030;-53
2022/11/18 00:45:55;;;;;;;14.90;5.35;;;;;;;11.88;100.00;99390.63;4992121;28;20027;-57
2022/11/18 00:48:22;;;;;;;10.77;4.50;;;;;;;11.93;100.00;99391.75;4993618;28;20039;-58
2022/11/18 00:50:53;;;;;;;8.27;4.15;;;;;;;11.68;100.00;99399.09;4989213;28;20035;-57
2022/11/18 00:53:20;;;;;;;11.25;4.00;;;;;;;11.83;100.00;99403.94;4992930;28;20035;-57
2022/11/18 00:55:46;;;;;;;8.60;3.93;;;;;;;11.83;100.00;99403.94;4991490;28;20047;-58
2022/11/18 00:58:13;;;;;;;17.50;4.15;;;;;;;11.84;100.00;99407.41;4987911;28;20303;-59
2022/11/18 01:00:42;;;;;;;;;;;;;;;11.96;100.00;99412.72;4994377;28;20050;-57
2022/11/18 01:03:08;;;;;;;10.43;3.92;;;;;;;12.10;100.00;99416.75;4988959;28;19914;-58
2022/11/18 01:05:33;;;;;;;13.05;4.13;;;;;;;12.23;100.00;99410.28;4993576;28;20062;-56
2022/11/18 01:07:59;;;;;;;9.55;4.53;;;;;;;12.10;100.00;99408.72;4992747;28;20062;-58
2022/11/18 01:10:25;;;;;;;9.80;4.10;;;;;;;12.07;100.00;99422.59;4991767;28;20094;-58
2022/11/18 01:15:40;;;;;;;9.63;4.60;;;;;;;12.33;100.00;99425.75;4993764;28;20098;-57
2022/11/18 01:18:06;;;;;;;17.40;4.45;;;;;;;12.48;100.00;99430.53;4992131;28;20030;-58
2022/11/18 01:20:33;;;;;;;13.23;3.60;;;;;;;12.48;100.00;99435.91;4992267;28;20084;-58
2022/11/18 01:22:59;;;;;;;11.80;4.27;;;;;;;12.54;100.00;99434.13;4990354;28;20042;-57
2022/11/18 01:25:24;;;;;;;8.43;3.60;;;;;;;12.59;100.00;99428.84;4990192;28;20292;-57
2022/11/18 01:27:50;;;;;;;13.88;5.43;;;;;;;12.73;100.00;99432.00;4985021;28;20087;-58
2022/11/18 01:30:15;;;;;;;12.80;4.77;;;;;;;12.61;100.00;99442.81;4983412;28;20039;-55
2022/11/18 01:32:41;;;;;;;9.57;4.47;;;;;;;12.77;100.00;99446.56;4987976;28;20122;-58
2022/11/18 01:35:08;;;;;;;12.27;4.15;;;;;;;12.58;100.00;99446.00;4990876;28;20038;-58
2022/11/18 01:37:34;;;;;;;14.77;4.60;;;;;;;12.38;100.00;99451.84;4984822;28;20035;-57
2022/11/18 01:39:59;;;;;;;14.57;4.07;;;;;;;12.34;100.00;99448.81;4986647;28;20284;-58
2022/11/18 01:42:25;;;;;;;14.00;4.37;;;;;;;12.43;100.00;99455.38;4991398;28;20042;-59
2022/11/18 01:44:58;;;;;;;9.43;3.63;;;;;;;12.46;100.00;99460.28;4990283;28;20316;-59
2022/11/18 01:47:30;;;;;;;11.20;4.40;;;;;;;12.18;100.00;99456.56;4989195;28;20046;-58
2022/11/18 01:49:58;;;;;;;7.33;3.67;;;;;;;12.18;100.00;99459.25;4992302;28;20273;-58
2022/11/18 01:52:24;;;;;;;8.20;3.87;;;;;;;12.22;100.00;99458.75;4983587;28;20277;-57
2022/11/18 01:54:54;;;;;;;7.63;3.83;;;;;;;12.58;100.00;99459.41;4990694;28;20312;-58
2022/11/18 01:57:21;;;;;;;12.40;4.25;;;;;;;12.44;100.00;99454.34;4990117;28;20035;-58
2022/11/18 01:59:51;;;;;;;8.30;3.60;;;;;;;12.68;100.00;99456.88;4990871;28;20026;-58
2022/11/18 02:02:16;;;;;;;10.87;3.90;;;;;;;12.31;100.00;99458.13;4989559;28;20035;-58
2022/11/18 02:04:46;;;;;;;8.03;3.57;;;;;;;12.56;100.00;99453.47;4987234;28;20289;-57
2022/11/18 02:07:13;;;;;;;14.83;5.20;;;;;;;12.68;100.00;99464.13;4989751;28;20291;-53
2022/11/18 02:09:39;;;;;;;15.07;3.70;;;;;;;12.54;100.00;99469.78;5012569;28;20261;-59
2022/11/18 02:12:06;;;;;;;11.77;3.83;;;;;;;12.94;100.00;99469.91;5010961;28;20043;-58
2022/11/18 02:14:36;;;;;;;12.30;4.17;;;;;;;12.66;100.00;99474.28;4985364;28;20126;-58
2022/11/18 02:17:29;;;;;;;11.87;4.00;;;;;;;12.24;100.00;99478.91;4987087;28;20293;-59
2022/11/18 02:20:14;;;;;;;15.07;4.27;;;;;;;12.14;100.00;99484.91;4989264;28;20269;-59
2022/11/18 02:23:08;;;;;;;9.17;3.63;;;;;;;12.40;100.00;99485.38;4989439;28;20265;-58
2022/11/18 02:26:02;;;;;;;13.00;4.20;;;;;;;12.66;100.00;99485.81;4980190;28;20352;-57
2022/11/18 02:28:58;;;;;;;11.97;3.67;;;;;;;12.60;100.00;99497.50;4988351;28;20356;-59
2022/11/18 02:31:32;;;;;;;13.23;4.57;;;;;;;12.62;100.00;99496.22;4989729;28;20360;-58
2022/11/18 02:34:20;;;;;;;9.87;4.10;;;;;;;12.64;100.00;99498.66;4989847;28;20285;-59
2022/11/18 02:36:49;;;;;;;11.37;4.07;;;;;;;12.81;100.00;99497.88;4989560;28;20297;-59
2022/11/18 02:39:32;;;;;;;9.77;3.93;;;;;;;12.93;100.00;99503.16;4988168;28;20284;-56
2022/11/18 02:42:03;;;;;;;7.00;3.60;;;;;;;12.63;100.00;99502.38;4987973;28;20272;-58
2022/11/18 02:44:30;;;;;;;12.83;3.87;;;;;;;12.85;100.00;99499.00;4985603;28;20265;-59
2022/11/18 02:47:00;;;;;;;8.50;3.67;;;;;;;12.80;100.00;99504.28;4989005;28;20299;-60
2022/11/18 02:49:35;;;;;;;6.93;3.20;;;;;;;13.03;100.00;99504.13;4985499;28;20356;-59
2022/11/18 02:52:02;;;;;;;9.30;3.40;;;;;;;13.03;100.00;99509.50;4988566;28;20345;-58
2022/11/18 02:54:28;;;;;;;15.53;4.10;;;;;;;13.09;100.00;99504.19;4988491;28;20300;-58
2022/11/18 02:56:55;;;;;;;9.75;3.95;;;;;;;12.87;100.00;99507.63;4990204;28;20288;-59
2022/11/18 02:59:21;;;;;;;10.63;3.58;;;;;;;13.31;100.00;99501.59;4988544;28;20041;-59
2022/11/18 03:01:46;;;;;;;12.37;4.27;;;;;;;13.05;100.00;99503.91;4990049;28;20054;-56
2022/11/18 03:04:15;;;;;;;12.30;4.47;;;;;;;13.05;100.00;99506.59;4990379;28;20291;-61
2022/11/18 03:06:47;;;;;;;6.97;3.77;;;;;;;12.85;100.00;99512.41;4983799;28;20047;-58
2022/11/18 03:09:27;;;;;;;6.97;3.30;;;;;;;12.65;100.00;99521.72;4986819;28;20273;-58
2022/11/18 03:12:23;;;;;;;7.33;3.30;;;;;;;12.96;100.00;99516.91;4988626;28;20284;-57
2022/11/18 03:15:23;;;;;;;14.50;4.23;;;;;;;13.34;100.00;99519.88;4990293;28;20304;-58
2022/11/18 03:18:02;;;;;;;8.87;3.40;;;;;;;12.90;100.00;99525.91;4991781;28;20332;-59
2022/11/18 03:20:57;;;;;;;12.83;3.63;;;;;;;13.15;100.00;99532.78;4992150;28;20269;-58
2022/11/18 03:23:39;;;;;;;11.30;4.03;;;;;;;13.15;100.00;99525.50;4992724;28;20289;-57
2022/11/18 03:26:22;;;;;;;13.40;3.33;;;;;;;12.73;100.00;99534.78;4991230;28;20367;-57
2022/11/18 03:29:01;;;;;;;9.47;3.93;;;;;;;12.79;100.00;99538.34;4986812;28;20261;-59
2022/11/18 03:31:39;;;;;;;11.93;4.07;;;;;;;12.84;100.00;99545.66;4990340;28;20308;-59
2022/11/18 03:34:25;;;;;;;9.73;3.90;;;;;;;13.12;100.00;99549.34;4990922;28;20332;-57
2022/11/18 03:36:56;;;;;;;8.33;3.70;;;;;;;13.07;100.00;99555.47;4990092;28;20269;-57
2022/11/18 03:39:24;;;;;;;10.03;3.30;;;;;;;13.26;100.00;99550.66;4983439;28;20281;-56
2022/11/18 03:41:59;;;;;;;12.73;4.30;;;;;;;13.02;100.00;99558.88;4990554;28;20283;-58
2022/11/18 03:44:31;;;;;;;7.67;3.70;;;;;;;13.16;100.00;99556.66;4993581;28;20306;-57
2022/11/18 03:47:08;;;;;;;10.90;3.90;;;;;;;13.18;100.00;99565.28;4988248;28;20273;-57
2022/11/18 03:49:57;;;;;;;7.30;3.50;;;;;;;13.37;100.00;99572.28;5004896;28;20295;-57
2022/11/18 03:52:28;;;;;;;7.47;3.00;;;;;;;12.90;100.00;99583.06;5018656;28;20049;-60
2022/11/18 03:54:58;;;;;;;12.53;3.60;;;;;;;12.90;100.00;99587.63;4987163;28;20289;-57
2022/11/18 03:57:32;;;;;;;10.37;4.80;;;;;;;12.83;100.00;99581.59;4986694;28;20279;-55
2022/11/18 04:00:08;;;;;;;9.40;3.93;;;;;;;13.07;100.00;99586.84;4987692;28;20336;-57
2022/11/18 04:02:35;;;;;;;10.07;3.80;;;;;;;13.20;100.00;99581.97;4987714;28;20291;-57
2022/11/18 04:05:04;;;;;;;8.77;3.97;;;;;;;12.81;100.00;99587.22;4983169;28;20050;-57
2022/11/18 04:07:36;;;;;;;18.40;3.90;;;;;;;13.09;100.00;99590.09;4971123;28;20269;-57
2022/11/18 04:10:12;;;;;;;10.83;3.67;;;;;;;12.98;100.00;99586.41;4990092;28;20364;-58
2022/11/18 04:12:44;;;;;;;5.72;3.50;;;;;;;12.91;100.00;99591.94;4991177;28;20292;-59
2022/11/18 04:15:11;;;;;;;8.93;3.40;;;;;;;13.00;100.00;99598.53;4987358;28;20043;-59
2022/11/18 04:17:39;;;;;;;12.32;4.53;;;;;;;12.93;100.00;99600.56;4990340;28;20283;-58
2022/11/18 04:20:06;;;;;;;10.77;3.40;;;;;;;12.72;100.00;99594.84;4991336;28;20047;-56
2022/11/18 04:22:31;;;;;;;7.03;3.65;;;;;;;12.47;100.00;99600.53;4986843;28;20295;-59
2022/11/18 04:24:56;;;;;;;9.47;3.97;;;;;;;12.47;100.00;99601.34;4991691;28;20047;-59
2022/11/18 04:27:22;;;;;;;9.13;3.47;;;;;;;12.66;100.00;99603.81;4984524;28;20027;-59
2022/11/18 04:29:47;;;;;;;12.90;3.53;;;;;;;12.57;100.00;99610.63;4987950;28;20066;-55
2022/11/18 04:32:13;;;;;;;14.30;4.73;;;;;;;12.86;100.00;99614.13;4989395;28;20062;-58
2022/11/18 04:34:38;;;;;;;16.50;4.43;;;;;;;12.88;100.00;99617.38;4984039;28;20068;-58
2022/11/18 04:37:04;;;;;;;9.50;3.73;;;;;;;12.73;100.00;99623.28;4989461;28;20289;-57
2022/11/18 04:39:29;;;;;;;20.70;4.57;;;;;;;12.61;100.00;99623.34;4985950;28;20063;-59
2022/11/18 04:41:55;;;;;;;12.43;4.03;;;;;;;12.87;100.00;99625.66;4991566;28;20273;-57
2022/11/18 04:44:22;;;;;;;6.43;4.10;;;;;;;12.73;100.00;99634.03;4988415;28;20035;-59
2022/11/18 04:46:48;;;;;;;9.53;4.00;;;;;;;12.77;100.00;99637.84;4987228;28;20063;-57
2022/11/18 04:49:15;;;;;;;9.77;4.20;;;;;;;12.68;100.00;99638.47;4984565;28;20280;-58
2022/11/18 04:51:42;;;;;;;7.70;4.05;;;;;;;12.68;100.00;99641.94;4986514;28;20038;-57
2022/11/18 04:54:08;;;;;;;18.73;4.32;;;;;;;12.97;100.00;99647.34;4990988;28;20043;-58
2022/11/18 04:56:35;;;;;;;12.27;4.90;;;;;;;12.43;100.00;99644.97;4989001;28;20042;-58
2022/11/18 04:59:02;;;;;;;9.83;4.00;;;;;;;12.19;100.00;99645.81;4991312;28;20265;-56
2022/11/18 05:01:28;;;;;;;8.63;3.40;;;;;;;12.12;100.00;99652.38;4991233;28;20027;-58
2022/11/18 05:03:54;;;;;;;12.45;4.15;;;;;;;12.16;100.00;99650.84;5020603;28;20276;-58
2022/11/18 05:06:20;;;;;;;;;;;;;;;12.13;100.00;99652.13;4991292;28;20035;-58
2022/11/18 05:08:46;;;;;;;11.47;3.90;;;;;;;12.16;100.00;99658.88;4989734;28;19922;-57
2022/11/18 05:13:55;;;;;;;12.15;4.47;;;;;;;12.12;100.00;99661.19;4997302;28;20034;-54
2022/11/18 05:16:21;;;;;;;9.50;3.70;;;;;;;11.98;100.00;99667.81;4991036;28;20038;-55
2022/11/18 05:18:46;;;;;;;10.63;4.60;;;;;;;11.97;100.00;99664.34;4988964;28;20036;-56
2022/11/18 05:21:12;;;;;;;10.73;4.40;;;;;;;11.86;100.00;99663.28;4989094;28;20050;-57
2022/11/18 05:23:37;;;;;;;9.80;4.27;;;;;;;12.03;100.00;99665.31;4986844;28;20042;-60
2022/11/18 05:26:08;;;;;;;8.83;4.10;;;;;;;11.78;100.00;99674.34;4985395;28;20291;-56
2022/11/18 05:28:33;;;;;;;13.27;4.30;;;;;;;11.93;100.00;99671.22;4992278;28;20053;-58
2022/11/18 05:31:04;;;;;;;12.57;4.70;;;;;;;11.75;100.00;99670.25;4988139;28;20087;-56
2022/11/18 05:33:30;;;;;;;6.68;3.75;;;;;;;11.82;100.00;99675.50;4987162;28;20037;-56
2022/11/18 05:35:56;;;;;;;14.07;4.73;;;;;;;11.87;100.00;99683.66;4997372;28;20063;-57
2022/11/18 05:38:21;;;;;;;12.43;3.93;;;;;;;11.85;100.00;99680.41;4991675;28;20043;-56
2022/11/18 05:40:47;;;;;;;11.10;3.92;;;;;;;11.85;100.00;99690.28;4984824;28;20060;-57
2022/11/18 05:43:13;;;;;;;9.88;4.13;;;;;;;11.88;100.00;99687.97;4991885;28;20074;-58
2022/11/18 05:45:40;;;;;;;10.07;3.92;;;;;;;11.84;100.00;99689.50;5007463;28;20031;-56
2022/11/18 05:48:06;;;;;;;9.17;4.47;;;;;;;11.77;100.00;99688.78;4992136;28;20066;-57
2022/11/18 05:50:35;;;;;;;13.07;3.63;;;;;;;11.82;100.00;99699.63;4996703;28;20281;-57
2022/11/18 05:53:01;;;;;;;11.70;4.30;;;;;;;11.74;100.00;99697.25;4988509;28;20316;-58
2022/11/18 05:55:43;;;;;;;;;;;;;;;11.74;100.00;99702.63;4991392;28;20376;-56
2022/11/18 05:58:09;;;;;;;8.13;4.05;;;;;;;11.88;100.00;99709.41;4985983;28;19998;-57
2022/11/18 06:00:35;;;;;;;11.93;5.33;;;;;;;11.89;100.00;99715.59;4991850;28;20043;-58
2022/11/18 06:03:03;;;;;;;10.70;4.07;;;;;;;11.91;100.00;99700.09;4992687;28;20031;-57
2022/11/18 06:05:28;;;;;;;9.63;3.92;;;;;;;11.89;100.00;99713.72;5001332;28;20072;-56
2022/11/18 06:07:56;;;;;;;15.73;4.47;;;;;;;11.71;100.00;99711.97;4992308;28;20034;-57
2022/11/18 06:10:29;;;;;;;9.65;4.35;;;;;;;11.68;100.00;99725.81;4991804;28;20043;-54
2022/11/18 06:13:01;;;;;;;12.20;3.80;;;;;;;12.01;100.00;99723.66;4987204;28;20061;-56
2022/11/18 06:15:34;;;;;;;8.02;4.18;;;;;;;11.94;100.00;99723.75;4987323;28;20277;-58
2022/11/18 06:18:10;;;;;;;10.30;4.10;;;;;;;12.11;100.00;99731.09;4980503;28;20030;-57
2022/11/18 06:20:38;;;;;;;9.13;4.03;;;;;;;11.66;100.00;99737.78;4990583;28;20031;-56
2022/11/18 06:23:04;;;;;;;15.20;3.70;;;;;;;11.58;100.00;99736.25;4990646;28;20043;-57
2022/11/18 06:25:29;;;;;;;13.70;4.30;;;;;;;11.66;100.00;99737.78;4995576;28;20031;-57
2022/11/18 06:27:59;;;;;;;14.25;4.40;;;;;;;11.72;100.00;99744.91;4992981;28;20304;-58
2022/11/18 06:30:25;;;;;;;14.27;4.60;;;;;;;11.57;100.00;99731.94;4984861;28;20035;-58
2022/11/18 06:32:51;;;;;;;9.40;3.90;;;;;;;11.55;100.00;99742.91;4998385;28;20124;-57
2022/11/18 06:35:16;;;;;;;14.87;4.80;;;;;;;11.45;100.00;99750.66;4989091;28;20090;-57
2022/11/18 06:37:42;;;;;;;9.17;3.80;;;;;;;11.46;100.00;99750.44;4992289;28;20276;-58
2022/11/18 06:40:08;;;;;;;12.03;4.57;;;;;;;11.76;100.00;99760.28;4989474;28;20066;-57
2022/11/18 06:45:18;;;;;;;13.40;5.70;;;;;;;11.36;100.00;99768.09;4988575;28;20122;-56
2022/11/18 06:47:44;;;;;;;9.67;5.10;;;;;;;11.42;100.00;99765.31;4992864;28;20030;-57
2022/11/18 06:50:10;;;;;;;11.73;5.03;;;;;;;11.71;100.00;99772.72;4997434;28;20041;-56
2022/11/18 06:52:35;;;;;;;11.70;4.65;;;;;;;11.99;100.00;99781.97;4992175;28;20031;-58
2022/11/18 06:55:01;;;;;;;11.83;4.93;;;;;;;11.84;100.00;99785.94;4989648;28;20046;-55
2022/11/18 06:57:27;;;;;;;15.07;4.97;;;;;;;11.41;100.00;99787.75;4986349;28;20091;-57
2022/11/18 06:59:53;;;;;;;10.85;5.05;;;;;;;11.50;100.00;99784.78;4984565;28;20299;-56
2022/11/18 07:02:18;;;;;;;15.33;4.90;;;;;;;11.52;100.00;99791.53;4991643;28;20043;-58
2022/11/18 07:04:44;;;;;;;9.40;4.47;;;;;;;11.40;100.00;99801.38;4991797;28;20039;-58
2022/11/18 07:07:10;;;;;;;9.52;4.40;;;;;;;11.48;100.00;99809.09;4991707;28;20050;-55
2022/11/18 07:09:36;;;;;;;9.48;4.55;;;;;;;11.72;100.00;99818.03;5003034;28;20038;-57
2022/11/18 07:12:02;;;;;;;17.25;5.15;;;;;;;11.98;100.00;99810.66;4990404;28;20043;-57
2022/11/18 07:14:28;;;;;;;14.90;4.53;;;;;;;11.66;100.00;99813.59;4990401;28;20035;-59
2022/11/18 07:16:54;;;;;;;9.75;4.93;;;;;;;11.98;100.00;99816.00;4987137;28;20039;-58
2022/11/18 07:19:20;;;;;;;9.63;5.13;;;;;;;11.83;100.00;99818.28;4990675;28;20066;-56
2022/11/18 07:21:45;;;;;;;8.43;4.88;;;;;;;11.88;100.00;99824.59;4986810;28;20041;-57
2022/11/18 07:24:13;;;;;;;13.73;5.50;;;;;;;11.81;100.00;99829.25;4986997;28;20050;-56
2022/11/18 07:26:38;;;;;;;12.52;6.10;;;;;;;11.71;100.00;99831.66;4988619;28;20031;-57
2022/11/18 07:29:04;;;;;;;17.45;5.22;;;;;;;11.45;100.00;99836.31;4987156;28;20050;-57
2022/11/18 07:31:30;;;;;;;12.20;5.57;;;;;;;11.19;100.00;99836.44;5009699;28;20043;-57
2022/11/18 07:33:56;;;;;;;12.90;4.32;;;;;;;11.36;100.00;99845.72;4988298;28;20304;-59
2022/11/18 07:36:25;;;;;;;14.43;5.90;;;;;;;11.45;100.00;99847.03;4986379;28;20038;-59
2022/11/18 07:38:51;;;;;;;17.73;6.03;;;;;;;11.54;100.00;99851.06;4988303;28;20068;-58
2022/11/18 07:41:23;;;;;;;12.85;5.35;;;;;;;11.86;100.00;99850.81;4985277;28;20053;-59
2022/11/18 07:43:50;;;;;;;12.48;5.30;;;;;;;11.02;100.00;99854.94;4986527;28;20031;-57
2022/11/18 07:46:21;;;;;;;12.55;4.85;;;;;;;11.20;100.00;99855.97;4992130;28;20067;-59
2022/11/18 07:48:51;;;;;;;11.05;5.35;;;;;;;11.73;100.00;99862.53;4987264;28;20094;-58
2022/11/18 07:51:18;;;;;;;13.97;5.30;;;;;;;11.71;100.00;99869.97;4999205;28;20054;-59
2022/11/18 07:53:45;;;;;;;16.08;5.90;;;;;;;11.44;100.00;99872.16;4991523;28;20281;-59
2022/11/18 07:56:11;;;;;;;13.98;5.40;;;;;;;11.02;100.00;99876.34;4987599;28;20031;-59
2022/11/18 07:58:37;;;;;;;13.70;5.72;;;;;;;11.26;100.00;99876.47;4985229;28;20041;-57
2022/11/18 08:01:17;;;;;;;23.02;5.43;;;;;;;11.40;100.00;99877.13;4987533;28;20046;-59
2022/11/18 08:03:44;;;;;;;15.48;5.53;;;;;;;11.30;100.00;99885.72;4988730;28;20126;-60
2022/11/18 08:06:11;;;;;;;15.63;6.30;;;;;;;11.57;100.00;99885.41;4988100;28;20042;-57
2022/11/18 08:08:37;;;;;;;14.10;5.23;;;;;;;11.29;100.00;99897.44;4989428;28;20035;-58
2022/11/18 08:11:06;;;;;;;10.45;5.85;;;;;;;11.56;100.00;99890.97;4986057;28;20265;-59
2022/11/18 08:13:32;;;;;;;13.05;5.38;;;;;;;11.52;100.00;99895.94;4988422;28;20046;-59
2022/11/18 08:15:58;;;;;;;19.80;5.47;;;;;;;11.54;100.00;99899.25;4986325;28;20030;-58
2022/11/18 08:18:27;;;;;;;12.82;5.43;;;;;;;11.55;100.00;99892.00;4988383;28;20039;-59
2022/11/18 08:20:53;;;;;;;12.57;5.68;;;;;;;11.42;100.00;99906.38;4984229;28;20046;-59
2022/11/18 08:23:18;;;;;;;22.93;5.93;;;;;;;11.71;100.00;99906.63;4990420;28;20031;-56
2022/11/18 08:25:45;;;;;;;11.00;5.22;;;;;;;11.73;100.00;99901.88;4987126;28;20035;-58
2022/11/18 08:28:11;;;;;;;13.93;5.67;;;;;;;12.32;100.00;99903.97;4982960;28;20035;-59
2022/11/18 08:30:38;;;;;;;15.05;5.70;;;;;;;12.09;100.00;99905.53;4985487;28;20277;-58
2022/11/18 08:33:05;;;;;;;13.93;6.47;;;;;;;12.00;100.00;99918.41;4995579;28;20047;-59
2022/11/18 08:35:32;;;;;;;14.88;6.15;;;;;;;12.12;100.00;99923.03;4985092;28;20041;-58
2022/11/18 08:37:58;;;;;;;11.63;5.95;;;;;;;11.97;100.00;99924.22;4986738;28;20031;-59
2022/11/18 08:40:25;;;;;;;15.23;6.03;;;;;;;11.89;100.00;99927.25;4983715;28;20061;-57
2022/11/18 08:42:51;;;;;;;13.97;4.87;;;;;;;11.69;100.00;99922.13;4980900;28;20046;-59
2022/11/18 08:45:16;;;;;;;15.20;5.83;;;;;;;11.76;100.00;99920.16;4981444;28;20264;-58
2022/11/18 08:47:42;;;;;;;17.43;6.33;;;;;;;12.04;100.00;99930.34;4988463;28;20050;-59
2022/11/18 08:50:10;;;;;;;11.48;5.30;;;;;;;12.11;100.00;99926.75;4991111;28;20035;-59
2022/11/18 08:52:35;;;;;;;15.47;6.23;;;;;;;12.48;100.00;99931.97;4987314;28;20028;-58
2022/11/18 08:55:01;;;;;;;10.15;5.15;;;;;;;12.70;100.00;99932.25;4988578;28;20277;-58
2022/11/18 08:57:27;;;;;;;11.57;5.40;;;;;;;13.14;100.00;99941.81;4989824;28;20031;-58
2022/11/18 08:59:52;;;;;;;10.93;5.03;;;;;;;13.36;100.00;99931.28;4982972;28;20074;-56
2022/11/18 09:02:20;;;;;;;15.17;5.27;;;;;;;13.71;100.00;99945.72;4978930;28;20047;-58
2022/11/18 09:04:47;;;;;;;15.70;4.80;;;;;;;13.53;100.00;99936.78;4988393;28;20039;-58
2022/11/18 09:07:13;;;;;;;15.77;5.43;;;;;;;13.67;100.00;99944.59;4992550;28;20277;-60
2022/11/18 09:09:39;;;;;;;12.40;3.95;;;;;;;13.50;100.00;99952.56;4990203;28;20273;-59
2022/11/18 09:12:04;;;;;;;11.63;4.43;;;;;;;13.52;100.00;99951.25;4989489;28;20070;-58
2022/11/18 09:14:30;;;;;;;;;;;;;;;13.39;100.00;99954.19;4976561;28;20038;-58
2022/11/18 09:16:56;;;;;;;10.30;4.23;;;;;;;13.53;100.00;99958.25;4984851;28;19970;-58
2022/11/18 09:19:23;;;;;;;8.93;4.03;;;;;;;13.88;100.00;99957.38;4991812;28;20051;-56
2022/11/18 09:21:48;;;;;;;16.17;3.87;;;;;;;14.12;100.00;99962.66;4992630;28;20042;-59
2022/11/18 09:24:14;;;;;;;21.63;4.37;;;;;;;14.83;100.00;99966.03;4994318;28;20281;-59
2022/11/18 09:26:40;;;;;;;17.50;4.60;;;;;;;15.56;100.00;99968.66;4988099;28;20038;-58
2022/11/18 09:29:07;;;;;;;10.13;3.50;;;;;;;16.27;100.00;99971.63;4980550;28;20035;-58
2022/11/18 09:31:34;;;;;;;8.17;3.53;;;;;;;17.14;100.00;99981.56;4993782;28;20295;-57
2022/11/18 09:34:00;;;;;;;9.50;3.70;;;;;;;17.67;100.00;99983.44;5014178;28;20284;-59
2022/11/18 09:36:26;;;;;;;11.18;3.35;;;;;;;18.26;100.00;100001.25;4989511;28;20031;-60
2022/11/18 09:38:52;;;;;;;9.50;2.92;;;;;;;18.76;100.00;99996.16;4990167;28;20030;-58
2022/11/18 09:41:38;;;;;;;11.70;3.28;;;;;;;17.80;100.00;99999.19;4980771;28;20047;-59
2022/11/18 09:44:29;;;;;;;14.37;2.57;;;;;;;16.87;100.00;99999.44;5011683;28;20050;-59
2022/11/18 09:47:03;;;;;;;6.67;2.90;;;;;;;16.67;100.00;99996.56;4989961;28;20039;-58
2022/11/18 09:49:35;;;;;;;9.73;3.33;;;;;;;16.82;100.00;100006.66;4991921;28;20041;-59
2022/11/18 09:52:04;;;;;;;10.50;3.73;;;;;;;17.45;100.00;100006.88;4991477;28;20031;-58
2022/11/18 09:54:34;;;;;;;9.13;2.53;;;;;;;18.54;100.00;100003.75;4979023;28;20043;-59
2022/11/18 09:57:00;;;;;;;10.87;2.77;;;;;;;19.12;100.00;100025.16;4980612;28;20035;-59
2022/11/18 09:59:29;;;;;;;6.78;2.78;;;;;;;19.62;100.00;100021.81;4987131;28;20038;-60
2022/11/18 10:02:27;;;;;;;8.73;2.73;;;;;;;19.59;100.00;100022.34;4988160;28;20064;-59
2022/11/18 10:04:55;;;;;;;7.33;2.73;;;;;;;18.24;100.00;100021.56;4988597;28;20073;-59
2022/11/18 10:07:38;;;;;;;7.60;2.50;;;;;;;17.44;100.00;100028.75;4991784;28;20056;-59
2022/11/18 10:10:14;;;;;;;9.93;3.43;;;;;;;18.15;100.00;100024.75;4990972;28;20068;-59
2022/11/18 10:12:51;;;;;;;6.55;2.50;;;;;;;19.65;100.00;100031.28;4987774;28;20059;-59
2022/11/18 10:15:31;;;;;;;12.80;3.47;;;;;;;19.82;100.00;100036.38;4986658;28;20099;-59
2022/11/18 10:18:11;;;;;;;5.93;2.47;;;;;;;19.99;100.00;100042.31;4992888;28;20038;-58
2022/11/18 10:20:40;;;;;;;9.70;2.80;;;;;;;18.23;100.00;100036.16;4992668;28;20035;-59
2022/11/18 10:23:34;;;;;;;10.83;3.27;;;;;;;17.73;100.00;100040.00;4990685;28;20042;-60
2022/11/18 10:26:00;;;;;;;9.27;2.40;;;;;;;17.55;100.00;100033.16;5058035;28;20038;-59
2022/11/18 10:28:28;;;;;;;8.65;2.63;;;;;;;18.11;100.00;100039.91;4985376;28;20062;-59
2022/11/18 10:31:03;;;;;;;12.47;3.23;;;;;;;18.85;100.00;100044.38;4988910;28;20047;-59
2022/11/18 10:33:29;;;;;;;7.77;2.77;;;;;;;17.86;100.00;100051.41;4986775;28;20065;-59
2022/11/18 10:36:23;;;;;;;9.70;3.20;;;;;;;18.38;100.00;100055.13;4990350;28;20035;-59
2022/11/18 10:39:05;;;;;;;8.93;2.77;;;;;;;18.36;100.00;100051.88;4986393;28;20041;-60
2022/11/18 10:41:47;;;;;;;13.40;2.73;;;;;;;19.54;100.00;100057.63;4987584;28;20038;-59
2022/11/18 10:44:35;;;;;;;7.10;2.80;;;;;;;19.46;100.00;100072.56;4986423;28;20038;-59
2022/11/18 10:47:23;;;;;;;9.43;2.80;;;;;;;18.34;100.00;100070.28;4989815;28;20033;-59
2022/11/18 10:49:53;;;;;;;10.57;2.50;;;;;;;17.70;100.00;100072.97;4991276;28;20086;-59
2022/11/18 10:52:19;;;;;;;7.13;3.23;;;;;;;17.34;100.00;100060.06;4986442;28;20042;-58
2022/11/18 10:55:05;;;;;;;7.53;2.42;;;;;;;17.18;100.00;100066.41;4989859;28;20053;-59
2022/11/18 10:57:35;;;;;;;9.37;2.63;;;;;;;16.58;100.00;100069.09;4990260;28;20035;-59
2022/11/18 11:00:01;;;;;;;9.63;2.97;;;;;;;17.17;100.00;100072.88;4987394;28;20037;-58
2022/11/18 11:02:39;;;;;;;10.10;3.30;;;;;;;16.82;100.00;100069.59;4989381;28;20050;-58
2022/11/18 11:05:18;;;;;;;13.33;3.23;;;;;;;17.38;100.00;100075.75;4986564;28;20027;-59
2022/11/18 11:07:44;;;;;;;6.40;2.93;;;;;;;16.92;100.00;100076.97;4988775;28;20041;-59
2022/11/18 11:10:11;;;;;;;8.70;2.65;;;;;;;16.70;100.00;100077.03;4989946;28;20041;-59
2022/11/18 11:12:45;;;;;;;12.68;2.80;;;;;;;16.36;100.00;100078.03;4987834;28;20046;-59
2022/11/18 11:15:37;;;;;;;5.73;2.87;;;;;;;15.78;100.00;100083.78;4987047;28;20038;-59
2022/11/18 11:21:00;;;;;;;11.80;4.13;;;;;;;15.67;100.00;100076.59;4988726;28;20265;-60
2022/11/18 11:23:25;;;;;;;10.40;3.50;;;;;;;16.10;100.00;100087.72;4984390;28;20114;-58
2022/11/18 11:26:00;;;;;;;9.35;4.22;;;;;;;15.93;100.00;100080.50;4982348;28;20038;-59
2022/11/18 11:28:50;;;;;;;11.33;3.90;;;;;;;16.08;100.00;100085.25;4966138;28;20074;-59
2022/11/18 11:31:28;;;;;;;8.60;3.40;;;;;;;15.90;100.00;100089.88;4986443;28;20279;-59
2022/11/18 11:34:16;;;;;;;15.10;4.33;;;;;;;16.32;100.00;100076.91;4985680;28;20333;-59
2022/11/18 11:37:08;;;;;;;12.50;4.00;;;;;;;15.58;100.00;100090.50;4984179;28;20277;-60
2022/11/18 11:40:06;;;;;;;10.73;3.47;;;;;;;15.60;100.00;100087.56;4985197;28;20383;-59
2022/11/18 11:43:06;;;;;;;7.77;3.80;;;;;;;15.56;100.00;100087.25;4987270;28;20280;-59
2022/11/18 11:46:09;;;;;;;8.87;4.30;;;;;;;15.65;100.00;100089.50;4984095;28;20333;-60
2022/11/18 11:48:56;;;;;;;12.77;4.20;;;;;;;15.52;100.00;100093.34;4984079;28;20261;-59